Time;durP1;ratioP1;P1;durP2;ratioP2;P2;SDS_P1;SDS_P2;PMS_P1;PMS_P2;Temp;Humidity;BMP_temperature;BMP_pressure;BME280_temperature;BME280_humidity;BME280_pressure;Samples;Min_cycle;Max_cycle;Signal;HPM_P1;HPM_P2
2023/12/09 00:00:07;;;;;;;45.00;14.60;;;9.90;99.90;;;10.17;100.00;100805.66;5094835;28;20051;-70
2023/12/09 00:02:36;;;;;;;39.38;13.50;;;10.00;99.90;;;10.23;100.00;100801.22;5095034;28;20044;-70
2023/12/09 00:05:06;;;;;;;44.47;13.75;;;10.00;99.90;;;10.18;100.00;100808.28;5094738;28;20101;-70
2023/12/09 00:07:34;;;;;;;41.17;13.73;;;10.00;99.90;;;10.14;100.00;100810.97;5076511;28;20574;-70
2023/12/09 00:10:02;;;;;;;40.83;13.30;;;10.00;99.90;;;10.19;100.00;100803.88;5094825;28;20416;-70
2023/12/09 00:12:31;;;;;;;45.17;14.43;;;10.00;99.90;;;10.19;100.00;100802.13;5094548;28;20489;-70
2023/12/09 00:15:00;;;;;;;44.70;13.43;;;10.00;99.90;;;10.20;100.00;100806.50;5094549;28;20122;-70
2023/12/09 00:17:29;;;;;;;45.88;13.15;;;10.00;99.90;;;10.18;100.00;100802.13;5094979;28;20514;-70
2023/12/09 00:19:59;;;;;;;40.78;12.10;;;10.00;99.90;;;10.16;100.00;100804.78;5094413;28;20043;-70
2023/12/09 00:22:27;;;;;;;45.42;13.32;;;10.00;99.90;;;9.84;100.00;100764.34;5094657;28;20074;-70
2023/12/09 00:24:56;;;;;;;39.20;12.20;;;9.90;99.90;;;10.11;100.00;100809.19;5076411;28;20044;-70
2023/12/09 00:27:24;;;;;;;37.72;12.63;;;9.90;99.90;;;10.10;100.00;100809.22;5094322;28;20120;-70
2023/12/09 00:29:53;;;;;;;42.17;13.43;;;9.90;99.90;;;10.08;100.00;100808.31;5094187;28;20048;-70
2023/12/09 00:32:23;;;;;;;37.90;12.43;;;9.90;99.90;;;10.00;100.00;100813.63;5094164;28;20443;-70
2023/12/09 00:34:51;;;;;;;41.15;11.98;;;9.80;99.90;;;10.07;100.00;100807.41;5094216;28;20113;-70
2023/12/09 00:37:20;;;;;;;39.08;11.38;;;9.90;99.90;;;10.08;100.00;100805.66;5076206;28;20040;-70
2023/12/09 00:39:48;;;;;;;34.90;11.85;;;9.90;99.90;;;10.04;100.00;100784.50;5093990;28;20073;-70
2023/12/09 00:42:17;;;;;;;42.88;12.55;;;9.90;99.90;;;10.04;100.00;100781.88;5093869;28;20044;-70
2023/12/09 00:44:45;;;;;;;35.70;11.43;;;9.90;99.90;;;10.06;100.00;100799.50;5094478;28;20123;-70
2023/12/09 00:47:13;;;;;;;37.33;10.90;;;9.90;99.90;;;10.03;100.00;100782.78;5094386;28;20493;-70
2023/12/09 00:49:43;;;;;;;37.30;10.88;;;9.90;99.90;;;10.00;100.00;100801.28;5093874;28;20462;-70
2023/12/09 00:52:12;;;;;;;48.53;11.23;;;9.80;99.90;;;10.01;100.00;100807.44;5093828;28;20409;-70
2023/12/09 00:54:40;;;;;;;36.40;10.80;;;9.80;99.90;;;9.80;100.00;100763.47;5093966;28;20091;-70
2023/12/09 00:57:09;;;;;;;44.22;11.15;;;9.80;99.90;;;9.93;100.00;100791.59;5093719;28;20047;-70
2023/12/09 00:59:37;;;;;;;36.55;10.73;;;9.80;99.90;;;9.83;100.00;100791.66;5093938;28;20043;-70
2023/12/09 01:02:06;;;;;;;39.53;11.68;;;9.70;99.90;;;9.61;100.00;100767.06;5093919;28;20044;-70
2023/12/09 01:04:35;;;;;;;34.90;11.52;;;9.70;99.90;;;9.85;100.00;100788.09;5093825;28;20131;-70
2023/12/09 01:07:05;;;;;;;41.85;10.88;;;9.70;99.90;;;9.83;100.00;100789.00;5093401;28;20101;-69
2023/12/09 01:09:33;;;;;;;45.58;11.68;;;9.60;99.90;;;9.80;100.00;100774.03;5094120;28;20086;-70
2023/12/09 01:12:02;;;;;;;37.58;10.68;;;9.60;99.90;;;9.66;100.00;100762.63;5093922;28;20048;-70
2023/12/09 01:14:30;;;;;;;31.83;10.25;;;9.60;99.90;;;9.78;100.00;100782.84;5093350;28;20040;-70
2023/12/09 01:16:58;;;;;;;44.28;11.00;;;9.60;99.90;;;9.71;100.00;100779.34;5075025;28;20032;-70
2023/12/09 01:19:27;;;;;;;34.53;10.60;;;9.60;99.90;;;9.73;100.00;100782.88;5075432;28;20051;-70
2023/12/09 01:21:55;;;;;;;37.78;10.75;;;9.50;99.90;;;9.67;100.00;100774.97;5093952;28;20044;-70
2023/12/09 01:24:25;;;;;;;36.47;10.23;;;9.50;99.90;;;9.67;100.00;100772.31;5093810;28;20119;-70
2023/12/09 01:26:53;;;;;;;35.07;9.80;;;9.50;99.90;;;9.67;100.00;100766.16;5093234;28;20576;-70
2023/12/09 01:29:22;;;;;;;29.67;9.70;;;9.50;99.90;;;9.71;100.00;100776.72;5093106;28;20300;-70
2023/12/09 01:31:50;;;;;;;36.22;10.48;;;9.50;99.90;;;9.54;100.00;100725.69;5093364;28;20036;-70
2023/12/09 01:34:18;;;;;;;38.72;10.15;;;9.50;99.90;;;9.65;100.00;100747.69;5093146;28;20066;-70
2023/12/09 01:36:47;;;;;;;33.63;9.30;;;9.50;99.90;;;9.63;100.00;100743.28;5093048;28;20507;-70
2023/12/09 01:39:15;;;;;;;31.92;9.98;;;9.50;99.90;;;9.65;100.00;100744.16;5093192;28;20051;-70
2023/12/09 01:41:45;;;;;;;41.17;11.32;;;9.40;99.90;;;9.65;100.00;100729.19;5092775;28;20063;-70
2023/12/09 01:44:14;;;;;;;35.13;10.60;;;9.40;99.90;;;9.68;100.00;100763.50;5092904;28;20047;-70
2023/12/09 01:46:42;;;;;;;37.08;10.63;;;9.50;99.90;;;9.68;100.00;100744.13;5093416;28;20052;-70
2023/12/09 01:49:11;;;;;;;32.95;9.77;;;9.50;99.90;;;9.68;100.00;100746.78;5092900;28;20036;-70
2023/12/09 01:51:39;;;;;;;39.60;10.57;;;9.50;99.90;;;9.74;100.00;100750.28;5093020;28;20093;-70
2023/12/09 01:54:08;;;;;;;35.22;10.90;;;9.60;99.90;;;9.75;100.00;100753.81;5092830;28;20098;-70
2023/12/09 01:56:37;;;;;;;34.75;9.63;;;9.60;99.90;;;9.74;100.00;100752.03;5092727;28;20416;-70
2023/12/09 01:59:07;;;;;;;41.22;10.20;;;9.60;99.90;;;9.76;100.00;100752.91;5092720;28;20036;-70
2023/12/09 02:01:37;;;;;;;39.67;10.48;;;9.60;99.90;;;9.69;100.00;100749.44;5093290;28;20093;-70
2023/12/09 02:04:06;;;;;;;38.13;10.35;;;9.60;99.90;;;9.72;100.00;100759.97;5092755;28;20408;-70
2023/12/09 02:06:34;;;;;;;39.72;9.60;;;9.50;99.90;;;8.99;100.00;100636.97;5092536;28;20036;-69
2023/12/09 02:09:03;;;;;;;32.40;9.15;;;9.50;99.90;;;9.68;100.00;100744.13;5074814;28;20052;-70
2023/12/09 02:11:40;;;;;;;32.78;9.68;;;9.50;99.90;;;9.65;100.00;100752.06;5092620;28;20040;-70
2023/12/09 02:14:21;;;;;;;42.17;10.90;;;9.50;99.90;;;9.47;100.00;100742.44;5093457;28;20055;-70
2023/12/09 02:16:58;;;;;;;37.08;10.30;;;9.40;99.90;;;9.41;100.00;100744.19;5074721;28;20485;-70
2023/12/09 02:19:28;;;;;;;34.38;10.00;;;9.30;99.90;;;9.42;100.00;100740.69;5092600;28;20044;-70
2023/12/09 02:22:01;;;;;;;33.47;10.33;;;9.30;99.90;;;9.42;100.00;100725.75;5092795;28;20044;-70
2023/12/09 02:24:31;;;;;;;37.58;10.15;;;9.30;99.90;;;9.30;100.00;100709.03;5092661;28;20520;-70
2023/12/09 02:27:07;;;;;;;35.78;9.45;;;9.20;99.90;;;9.33;100.00;100732.81;5092867;28;20036;-70
2023/12/09 02:29:50;;;;;;;35.30;10.00;;;9.20;99.90;;;9.21;100.00;100715.22;5093061;28;20071;-70
2023/12/09 02:32:22;;;;;;;30.08;9.30;;;9.10;99.90;;;9.23;100.00;100726.66;5074652;28;20048;-70
2023/12/09 02:34:52;;;;;;;36.90;10.45;;;9.10;99.90;;;9.23;100.00;100718.75;5074647;28;20459;-70
2023/12/09 02:37:22;;;;;;;40.53;10.02;;;9.10;99.90;;;9.21;100.00;100707.31;5092745;28;20056;-70
2023/12/09 02:39:52;;;;;;;39.28;11.00;;;9.10;99.90;;;9.19;100.00;100705.53;5074580;28;20056;-70
2023/12/09 02:42:21;;;;;;;38.17;10.60;;;9.00;99.90;;;9.18;100.00;100696.75;5092673;28;20058;-70
2023/12/09 02:44:50;;;;;;;36.80;10.18;;;9.00;99.90;;;9.18;100.00;100699.38;5092512;28;20044;-70
2023/12/09 02:47:18;;;;;;;34.42;9.98;;;9.00;99.90;;;8.96;100.00;100706.44;5092270;28;20048;-70
2023/12/09 02:49:47;;;;;;;39.67;10.07;;;9.00;99.90;;;9.09;100.00;100694.13;5092251;28;20067;-70
2023/12/09 02:52:15;;;;;;;32.05;9.90;;;8.90;99.90;;;9.09;100.00;100712.59;5092257;28;20048;-70
2023/12/09 02:54:43;;;;;;;34.20;10.07;;;8.90;99.90;;;9.07;100.00;100685.34;5094827;28;20040;-70
2023/12/09 02:57:13;;;;;;;39.00;10.50;;;8.90;99.90;;;9.00;100.00;100708.19;5095971;28;20412;-70
2023/12/09 02:59:42;;;;;;;37.85;10.02;;;8.90;99.90;;;9.03;100.00;100696.75;5096029;28;20075;-70
2023/12/09 03:02:10;;;;;;;35.95;10.65;;;8.90;99.90;;;8.92;100.00;100704.66;5096203;28;20039;-70
2023/12/09 03:04:38;;;;;;;33.80;10.38;;;8.90;99.90;;;8.97;100.00;100680.94;5095862;28;20397;-70
2023/12/09 03:07:07;;;;;;;38.05;10.95;;;8.90;99.90;;;9.01;100.00;100690.63;5077690;28;20052;-68
2023/12/09 03:09:35;;;;;;;44.35;10.32;;;8.90;99.90;;;9.08;100.00;100692.34;5095796;28;20071;-67
2023/12/09 03:12:04;;;;;;;32.35;9.93;;;8.90;99.90;;;9.10;100.00;100698.50;5095759;28;20048;-68
2023/12/09 03:14:34;;;;;;;40.00;9.77;;;9.00;99.90;;;9.01;100.00;100690.63;5096012;28;20155;-68
2023/12/09 03:17:03;;;;;;;33.33;10.03;;;8.90;99.90;;;9.09;100.00;100692.38;5095988;28;20051;-68
2023/12/09 03:19:31;;;;;;;33.88;9.32;;;8.90;99.90;;;9.05;100.00;100684.47;5077776;28;20105;-68
2023/12/09 03:22:00;;;;;;;36.75;9.77;;;8.90;99.90;;;9.07;100.00;100683.59;5095523;28;20043;-67
2023/12/09 03:24:28;;;;;;;40.47;10.85;;;8.90;99.90;;;9.02;100.00;100676.53;5095448;28;20121;-68
2023/12/09 03:26:57;;;;;;;31.40;9.75;;;8.90;99.90;;;8.95;100.00;100672.16;5095458;28;20044;-68
2023/12/09 03:29:25;;;;;;;37.88;10.30;;;8.80;99.90;;;8.99;100.00;100673.91;5095631;28;20040;-68
2023/12/09 03:31:55;;;;;;;35.35;9.07;;;8.90;99.90;;;9.02;100.00;100665.97;5077481;28;20094;-68
2023/12/09 03:34:23;;;;;;;32.50;9.73;;;8.90;99.90;;;9.01;100.00;100664.22;5095855;28;20048;-68
2023/12/09 03:36:52;;;;;;;40.72;10.02;;;8.90;99.90;;;8.97;100.00;100667.75;5095553;28;20290;-68
2023/12/09 03:39:20;;;;;;;38.10;9.88;;;8.80;99.90;;;9.01;100.00;100656.31;5095277;28;20040;-70
2023/12/09 03:41:48;;;;;;;44.17;10.38;;;8.90;99.90;;;9.05;100.00;100650.16;5095421;28;20071;-70
2023/12/09 03:44:17;;;;;;;38.17;10.18;;;8.90;99.90;;;9.06;100.00;100641.34;5095361;28;20460;-70
2023/12/09 03:46:45;;;;;;;32.70;10.00;;;8.90;99.90;;;9.06;100.00;100638.72;5095328;28;20040;-70
2023/12/09 03:49:15;;;;;;;34.58;9.18;;;8.90;99.90;;;9.11;100.00;100647.50;5095355;28;20044;-70
2023/12/09 03:51:43;;;;;;;37.88;10.10;;;8.90;99.90;;;9.14;100.00;100647.50;5095354;28;20040;-70
2023/12/09 03:54:12;;;;;;;32.00;9.23;;;9.00;99.90;;;9.05;100.00;100639.59;5095005;28;20048;-70
2023/12/09 03:56:40;;;;;;;35.88;9.82;;;8.90;99.90;;;9.09;100.00;100639.59;5094919;28;20400;-70
2023/12/09 03:59:08;;;;;;;36.90;9.27;;;9.00;99.90;;;9.16;100.00;100644.84;5095057;28;20568;-70
2023/12/09 04:01:37;;;;;;;36.38;9.73;;;9.00;99.90;;;9.06;100.00;100630.78;5094700;28;20060;-70
2023/12/09 04:04:05;;;;;;;40.33;9.90;;;9.00;99.90;;;8.95;100.00;100636.09;5094469;28;20048;-69
2023/12/09 04:06:35;;;;;;;37.25;9.65;;;8.90;99.90;;;8.97;100.00;100621.16;5094340;28;20040;-69
2023/12/09 04:09:04;;;;;;;37.38;10.55;;;8.80;99.90;;;8.98;100.00;100632.59;5094735;28;20145;-70
2023/12/09 04:11:33;;;;;;;37.75;10.88;;;8.90;99.90;;;9.04;100.00;100644.00;5076034;28;20512;-70
2023/12/09 04:14:01;;;;;;;32.50;9.05;;;8.90;99.90;;;9.00;100.00;100621.13;5093988;28;20074;-70
2023/12/09 04:16:29;;;;;;;30.83;9.90;;;8.90;99.90;;;8.93;100.00;100618.53;5094392;28;20101;-70
2023/12/09 04:18:58;;;;;;;30.88;9.55;;;8.90;99.90;;;8.97;100.00;100628.19;5093832;28;20048;-70
2023/12/09 04:21:27;;;;;;;32.50;9.55;;;8.90;99.90;;;8.98;100.00;100611.50;5093965;28;20512;-70
2023/12/09 04:23:57;;;;;;;36.83;9.85;;;8.90;99.90;;;9.01;100.00;100620.28;5075649;28;20477;-70
2023/12/09 04:26:25;;;;;;;34.70;9.65;;;8.90;99.90;;;8.88;100.00;100615.03;5094247;28;20052;-70
2023/12/09 04:28:54;;;;;;;36.58;10.52;;;8.80;99.90;;;8.89;100.00;100606.22;5093612;28;20075;-70
2023/12/09 04:31:22;;;;;;;38.42;10.45;;;8.80;99.90;;;8.87;100.00;100607.97;5093630;28;20139;-70
2023/12/09 04:33:51;;;;;;;36.13;10.35;;;8.80;99.90;;;8.87;100.00;100592.16;5093432;28;20119;-70
2023/12/09 04:36:19;;;;;;;44.90;10.40;;;8.80;99.90;;;8.68;100.00;100598.34;5093480;28;20122;-70
2023/12/09 04:38:47;;;;;;;38.67;10.15;;;8.70;99.90;;;8.82;100.00;100583.38;5093658;28;20078;-68
2023/12/09 04:41:17;;;;;;;35.47;10.43;;;8.70;99.90;;;8.77;100.00;100586.03;5093357;28;20044;-68
2023/12/09 04:43:46;;;;;;;41.92;10.73;;;8.70;99.90;;;8.62;100.00;100583.41;5093338;28;20048;-67
2023/12/09 04:46:14;;;;;;;34.88;11.05;;;8.60;99.90;;;8.63;100.00;100592.22;5093357;28;20047;-67
2023/12/09 04:48:43;;;;;;;26.45;9.43;;;8.60;99.90;;;8.70;100.00;100597.47;5093203;28;20036;-67
2023/12/09 04:51:12;;;;;;;33.92;9.77;;;8.60;99.90;;;8.72;100.00;100597.47;5093211;28;20126;-68
2023/12/09 04:53:40;;;;;;;38.25;10.18;;;8.60;99.90;;;8.59;100.00;100590.47;5093366;28;20054;-68
2023/12/09 04:56:10;;;;;;;38.35;11.10;;;8.60;99.90;;;8.58;100.00;100578.13;5093059;28;20063;-68
2023/12/09 04:58:39;;;;;;;33.35;10.55;;;8.60;99.90;;;8.69;100.00;100584.31;5093058;28;20044;-68
2023/12/09 05:01:08;;;;;;;37.23;11.30;;;8.60;99.90;;;8.76;100.00;100583.41;5093355;28;20039;-70
2023/12/09 05:03:37;;;;;;;35.50;10.13;;;8.70;99.90;;;8.73;100.00;100578.16;5092930;28;20368;-70
2023/12/09 05:06:06;;;;;;;32.92;9.70;;;8.70;99.90;;;8.70;100.00;100580.75;5093169;28;20072;-70
2023/12/09 05:08:34;;;;;;;41.88;10.90;;;8.60;99.90;;;8.75;100.00;100584.28;5093243;28;20056;-70
2023/12/09 05:11:03;;;;;;;33.92;10.57;;;8.70;99.90;;;8.59;100.00;100570.25;5092827;28;20486;-70
2023/12/09 05:13:31;;;;;;;38.95;11.63;;;8.60;99.90;;;8.52;100.00;100576.41;5092760;28;20044;-70
2023/12/09 05:16:02;;;;;;;44.63;11.95;;;8.50;99.90;;;8.50;100.00;100564.09;5092633;28;20401;-70
2023/12/09 05:18:31;;;;;;;36.42;11.23;;;8.50;99.90;;;8.58;100.00;100591.31;5092572;28;20078;-70
2023/12/09 05:20:59;;;;;;;36.58;11.20;;;8.50;99.90;;;8.61;100.00;100591.34;5092665;28;20453;-70
2023/12/09 05:23:27;;;;;;;36.10;11.85;;;8.60;99.90;;;8.65;100.00;100577.28;5093153;28;20047;-70
2023/12/09 05:25:56;;;;;;;40.15;12.23;;;8.60;99.90;;;8.67;100.00;100586.06;5074631;28;20494;-70
2023/12/09 05:28:24;;;;;;;42.20;12.60;;;8.60;99.90;;;8.75;100.00;100565.84;5092596;28;20048;-70
2023/12/09 05:30:53;;;;;;;38.25;12.35;;;8.70;99.90;;;8.74;100.00;100559.69;5074662;28;20442;-70
2023/12/09 05:33:22;;;;;;;38.53;12.20;;;8.70;99.90;;;8.72;100.00;100563.19;5092498;28;20044;-70
2023/12/09 05:35:51;;;;;;;36.95;13.07;;;8.70;99.90;;;8.58;100.00;100546.50;5093063;28;20131;-70
2023/12/09 05:38:20;;;;;;;40.65;13.82;;;8.60;99.90;;;8.68;100.00;100535.97;5092712;28;20119;-70
2023/12/09 05:40:48;;;;;;;38.90;13.88;;;8.60;99.90;;;8.75;100.00;100535.06;5092621;28;20439;-70
2023/12/09 05:43:16;;;;;;;43.60;16.08;;;8.60;99.90;;;8.66;100.00;100531.56;5092976;28;20071;-70
2023/12/09 05:45:45;;;;;;;44.53;14.38;;;8.60;99.90;;;8.63;100.00;100529.78;5074684;28;20051;-70
2023/12/09 05:48:13;;;;;;;41.10;14.68;;;8.60;99.90;;;8.59;100.00;100530.72;5092958;28;20069;-70
2023/12/09 05:50:44;;;;;;;41.10;13.57;;;8.50;99.90;;;8.69;100.00;100548.25;5092335;28;20036;-70
2023/12/09 05:53:12;;;;;;;35.88;13.43;;;8.60;99.90;;;8.62;100.00;100546.50;5092915;28;20085;-70
2023/12/09 05:55:41;;;;;;;37.15;14.55;;;8.50;99.90;;;8.65;100.00;100519.28;5092610;28;20051;-69
2023/12/09 05:58:10;;;;;;;45.63;14.88;;;8.50;99.90;;;8.72;100.00;100516.63;5092231;28;20044;-70
2023/12/09 06:00:38;;;;;;;53.78;16.60;;;8.60;99.90;;;8.65;100.00;100519.28;5092287;28;20044;-70
2023/12/09 06:03:08;;;;;;;43.45;15.52;;;8.60;99.90;;;8.60;100.00;100511.38;5092542;28;20048;-70
2023/12/09 06:05:36;;;;;;;50.00;16.48;;;8.50;99.90;;;8.56;100.00;100514.00;5092474;28;20058;-70
2023/12/09 06:08:06;;;;;;;42.80;16.23;;;8.50;99.90;;;8.58;100.00;100515.75;5092418;28;20052;-70
2023/12/09 06:10:34;;;;;;;41.38;17.45;;;8.50;99.90;;;8.52;100.00;100538.59;5092225;28;20105;-70
2023/12/09 06:13:03;;;;;;;45.35;17.67;;;8.50;99.90;;;8.47;100.00;100511.41;5092559;28;20071;-70
2023/12/09 06:15:31;;;;;;;53.67;18.00;;;8.40;99.90;;;8.52;100.00;100506.97;5092191;28;20044;-70
2023/12/09 06:18:00;;;;;;;43.60;18.30;;;8.40;99.90;;;8.51;100.00;100492.94;5092759;28;20048;-70
2023/12/09 06:20:28;;;;;;;47.90;18.02;;;8.50;99.90;;;8.53;100.00;100492.94;5092550;28;20119;-70
2023/12/09 06:22:56;;;;;;;50.20;19.20;;;8.40;99.90;;;8.58;100.00;100504.34;5092622;28;20044;-70
2023/12/09 06:25:26;;;;;;;42.00;19.42;;;8.40;99.90;;;8.54;100.00;100497.31;5092080;28;20485;-70
2023/12/09 06:27:55;;;;;;;42.67;19.90;;;8.50;99.90;;;8.59;100.00;100464.81;5093381;28;20048;-70
2023/12/09 06:30:23;;;;;;;39.70;18.98;;;8.50;99.90;;;8.62;100.00;100448.09;5096602;28;20051;-70
2023/12/09 06:32:51;;;;;;;46.97;20.30;;;8.50;99.90;;;8.60;100.00;100431.41;5096019;28;20143;-70
2023/12/09 06:35:20;;;;;;;45.55;21.48;;;8.50;99.90;;;8.53;100.00;100456.94;5095978;28;20075;-70
2023/12/09 06:37:48;;;;;;;47.17;20.77;;;8.50;99.90;;;8.62;100.00;100443.72;5095985;28;20519;-70
2023/12/09 06:40:17;;;;;;;43.33;20.67;;;8.50;99.90;;;8.58;100.00;100436.69;5095860;28;20501;-70
2023/12/09 06:42:46;;;;;;;44.75;20.25;;;8.50;99.90;;;8.68;100.00;100403.25;5077864;28;20554;-70
2023/12/09 06:45:15;;;;;;;49.30;22.13;;;8.60;99.90;;;8.60;100.00;100411.19;5096118;28;20050;-70
2023/12/09 06:47:43;;;;;;;49.60;20.83;;;8.50;99.90;;;8.66;100.00;100400.63;5095710;28;20126;-70
2023/12/09 06:50:12;;;;;;;53.53;22.88;;;8.60;99.90;;;8.63;100.00;100394.50;5095628;28;20047;-70
2023/12/09 06:52:41;;;;;;;44.55;22.38;;;8.50;99.90;;;8.60;100.00;100407.69;5077464;28;20051;-71
2023/12/09 06:55:09;;;;;;;52.50;22.90;;;8.50;99.90;;;8.64;100.00;100398.88;5095539;28;20125;-71
2023/12/09 06:57:38;;;;;;;52.33;22.63;;;8.50;99.90;;;8.56;100.00;100398.03;5095494;28;20040;-71
2023/12/09 07:00:09;;;;;;;45.38;21.27;;;8.50;99.90;;;8.61;100.00;100389.25;5095743;28;20048;-71
2023/12/09 07:02:38;;;;;;;48.58;22.55;;;8.50;99.90;;;8.46;100.00;100380.53;5095516;28;20119;-72
2023/12/09 07:05:24;;;;;;;43.92;21.45;;;8.40;99.90;;;8.54;100.00;100390.13;5095377;28;20097;-72
2023/12/09 07:07:53;;;;;;;55.88;23.23;;;8.40;99.90;;;8.47;100.00;100382.25;5095458;28;20052;-74
2023/12/09 07:10:22;;;;;;;58.30;22.90;;;8.40;99.90;;;8.65;100.00;100387.47;5076801;28;20059;-73
2023/12/09 07:12:50;;;;;;;65.97;24.05;;;8.50;99.90;;;8.70;100.00;100397.09;5095577;28;20083;-73
2023/12/09 07:15:20;;;;;;;52.53;22.13;;;8.60;99.90;;;8.75;100.00;100420.81;5095149;28;20040;-73
2023/12/09 07:17:48;;;;;;;45.42;22.33;;;8.70;99.90;;;8.75;100.00;100382.13;5095528;28;20054;-64
2023/12/09 07:20:17;;;;;;;50.90;23.23;;;8.70;99.90;;;8.62;100.00;100390.09;5095329;28;20072;-65
2023/12/09 07:22:45;;;;;;;49.95;24.55;;;8.60;99.90;;;8.48;100.00;100363.81;5095363;28;20116;-67
2023/12/09 07:25:14;;;;;;;55.28;26.85;;;8.50;99.90;;;8.53;100.00;100391.03;5095416;28;20064;-67
2023/12/09 07:27:42;;;;;;;55.28;25.80;;;8.40;99.90;;;8.53;100.00;100346.22;5095173;28;20040;-65
2023/12/09 07:30:11;;;;;;;51.67;26.27;;;8.40;99.90;;;8.57;100.00;100352.34;5095163;28;20144;-73
2023/12/09 07:32:41;;;;;;;56.58;25.38;;;8.50;99.90;;;7.93;100.00;100244.59;5094953;28;20051;-70
2023/12/09 07:35:11;;;;;;;58.63;26.02;;;8.50;99.90;;;8.59;100.00;100343.56;5095187;28;20074;-71
2023/12/09 07:37:39;;;;;;;56.53;26.40;;;8.50;99.90;;;8.60;100.00;100349.69;5095117;28;20101;-71
2023/12/09 07:40:11;;;;;;;52.05;25.20;;;8.50;99.90;;;8.72;100.00;100347.88;5094044;28;20124;-69
2023/12/09 07:42:40;;;;;;;62.25;24.98;;;8.60;99.90;;;8.74;100.00;100345.22;5094761;28;20043;-70
2023/12/09 07:45:10;;;;;;;49.85;22.67;;;8.70;99.90;;;8.73;100.00;100332.94;5094691;28;20536;-72
2023/12/09 07:47:38;;;;;;;50.25;22.13;;;8.60;99.90;;;8.76;100.00;100375.09;5094715;28;20711;-73
2023/12/09 07:50:10;;;;;;;43.83;21.27;;;8.70;99.90;;;8.78;100.00;100353.13;5094758;28;20047;-73
2023/12/09 07:52:38;;;;;;;42.95;20.65;;;8.70;99.90;;;8.90;100.00;100336.34;5076499;28;20089;-73
2023/12/09 07:55:08;;;;;;;49.70;22.58;;;8.80;99.90;;;8.85;100.00;100335.50;5094970;28;20047;-72
2023/12/09 07:57:37;;;;;;;54.75;21.27;;;8.80;99.90;;;9.00;100.00;100341.53;5094904;28;20050;-72
2023/12/09 08:00:07;;;;;;;48.95;20.40;;;8.90;99.90;;;9.03;100.00;100338.03;5094222;28;20508;-72
2023/12/09 08:02:36;;;;;;;46.00;20.60;;;8.90;99.90;;;9.10;100.00;100334.44;5094532;28;20051;-73
2023/12/09 08:05:06;;;;;;;46.28;22.27;;;9.00;99.90;;;9.12;100.00;100332.66;5076217;28;20079;-72
2023/12/09 08:07:35;;;;;;;46.65;22.08;;;9.00;99.90;;;9.10;100.00;100327.41;5094196;28;20159;-72
2023/12/09 08:10:06;;;;;;;50.00;22.07;;;9.00;99.90;;;9.01;100.00;100340.69;5094351;28;20066;-72
2023/12/09 08:12:34;;;;;;;;;;;9.00;99.90;;;8.99;100.00;100308.16;5095081;28;20680;-72
2023/12/09 08:15:03;;;;;;;53.88;24.05;;;9.00;99.90;;;9.20;100.00;100314.13;5094225;28;19920;-72
2023/12/09 08:17:32;;;;;;;41.23;22.23;;;9.10;99.90;;;9.20;100.00;100325.56;5093899;28;20047;-73
2023/12/09 08:20:01;;;;;;;45.40;23.05;;;9.10;99.90;;;9.22;100.00;100313.25;5094012;28;20039;-73
2023/12/09 08:22:29;;;;;;;42.65;20.58;;;9.10;99.90;;;9.29;100.00;100322.84;5094086;28;20116;-72
2023/12/09 08:24:59;;;;;;;50.50;20.88;;;9.20;99.90;;;9.23;100.00;100296.53;5093781;28;20451;-72
2023/12/09 08:27:28;;;;;;;44.87;21.67;;;9.20;99.90;;;9.37;100.00;100285.88;5093772;28;20486;-72
2023/12/09 08:29:56;;;;;;;46.10;20.88;;;9.20;99.90;;;9.38;100.00;100300.81;5093676;28;20115;-73
2023/12/09 08:32:25;;;;;;;45.63;20.95;;;9.30;99.90;;;9.08;100.00;100270.25;5093829;28;20043;-72
2023/12/09 08:34:53;;;;;;;44.10;19.52;;;9.20;99.90;;;9.35;100.00;100299.06;5093654;28;20516;-72
2023/12/09 08:37:36;;;;;;;42.60;20.50;;;9.20;99.90;;;9.30;100.00;100269.22;5093680;28;20428;-72
2023/12/09 08:40:11;;;;;;;51.65;20.35;;;9.20;99.90;;;9.34;100.00;100254.22;5094041;28;20334;-72
2023/12/09 08:42:39;;;;;;;39.65;19.13;;;9.20;99.90;;;9.29;100.00;100256.03;5093488;28;20097;-72
2023/12/09 08:45:11;;;;;;;36.67;19.88;;;9.20;99.90;;;9.23;100.00;100235.88;5093435;28;20093;-72
2023/12/09 08:47:40;;;;;;;41.58;18.70;;;9.20;99.90;;;9.22;100.00;100244.66;5093377;28;20550;-72
2023/12/09 08:50:13;;;;;;;44.15;19.02;;;9.10;99.90;;;9.24;100.00;100215.59;5093430;28;20485;-72
2023/12/09 08:52:52;;;;;;;44.85;19.00;;;9.10;99.90;;;9.14;100.00;100211.34;5092546;28;20390;-72
2023/12/09 08:55:23;;;;;;;42.92;19.42;;;9.10;99.90;;;9.06;100.00;100233.34;5093254;28;20505;-72
2023/12/09 08:57:52;;;;;;;40.78;20.25;;;9.00;99.90;;;9.04;100.00;100228.97;5093261;28;20036;-72
2023/12/09 09:00:25;;;;;;;48.15;20.17;;;9.00;99.90;;;9.21;100.00;100221.81;5093449;28;20505;-72
2023/12/09 09:02:55;;;;;;;42.47;19.63;;;9.10;99.90;;;9.17;100.00;100241.19;5093241;28;20043;-72
2023/12/09 09:05:24;;;;;;;47.42;19.63;;;9.10;99.90;;;9.27;100.00;100231.41;5093141;28;20416;-73
2023/12/09 09:07:53;;;;;;;42.10;19.05;;;9.20;99.90;;;9.26;100.00;100211.19;5092823;28;20071;-72
2023/12/09 09:10:23;;;;;;;38.08;18.17;;;9.10;99.90;;;9.32;100.00;100212.00;5092850;28;20044;-71
2023/12/09 09:12:52;;;;;;;37.42;18.00;;;9.20;99.90;;;9.28;100.00;100234.03;5093034;28;20421;-72
2023/12/09 09:15:21;;;;;;;42.47;17.13;;;9.20;99.90;;;9.27;100.00;100212.94;5093230;28;20043;-72
2023/12/09 09:17:49;;;;;;;42.03;16.58;;;9.20;99.90;;;9.28;100.00;100196.22;5093489;28;20055;-72
2023/12/09 09:20:18;;;;;;;42.63;17.02;;;9.20;99.90;;;9.25;100.00;100193.63;5093186;28;20040;-72
2023/12/09 09:22:47;;;;;;;38.30;16.23;;;9.20;99.90;;;9.25;100.00;100185.72;5093169;28;20420;-73
2023/12/09 09:25:16;;;;;;;37.90;14.50;;;9.10;99.90;;;9.25;100.00;100189.22;5092882;28;20044;-72
2023/12/09 09:27:47;;;;;;;39.85;14.88;;;9.20;99.90;;;9.23;100.00;100153.19;5074699;28;20079;-72
2023/12/09 09:30:19;;;;;;;35.25;14.13;;;9.10;99.90;;;9.21;100.00;100161.13;5092817;28;20044;-72
2023/12/09 09:32:48;;;;;;;35.67;13.82;;;9.20;99.90;;;9.20;100.00;100191.03;5092793;28;20036;-72
2023/12/09 09:35:17;;;;;;;40.72;13.45;;;9.10;99.90;;;9.28;100.00;100143.44;5074470;28;20070;-72
2023/12/09 09:37:45;;;;;;;38.63;13.32;;;9.20;99.90;;;9.27;100.00;100141.72;5091560;28;20059;-72
2023/12/09 09:40:16;;;;;;;34.17;13.75;;;9.20;99.90;;;9.29;100.00;100109.13;5092770;28;20447;-72
2023/12/09 09:42:51;;;;;;;36.85;12.95;;;9.20;99.90;;;9.24;100.00;100103.03;5092493;28;20044;-72
2023/12/09 09:45:24;;;;;;;46.20;14.23;;;9.20;99.90;;;9.23;100.00;100106.56;5074752;28;20055;-73
2023/12/09 09:48:03;;;;;;;39.20;12.13;;;9.10;99.90;;;9.21;100.00;100089.88;5092641;28;20093;-73
2023/12/09 09:50:41;;;;;;;35.40;12.20;;;9.10;99.90;;;9.23;100.00;100088.09;5092568;28;20390;-73
2023/12/09 09:53:13;;;;;;;38.78;13.30;;;9.20;99.90;;;9.23;100.00;100061.72;5093052;28;20468;-73
2023/12/09 09:55:42;;;;;;;37.83;12.35;;;9.10;99.90;;;9.10;100.00;100076.81;5092348;28;20067;-73
2023/12/09 09:58:16;;;;;;;33.20;11.27;;;9.00;99.90;;;9.19;100.00;100056.50;5092332;28;20062;-72
2023/12/09 10:00:44;;;;;;;33.85;11.52;;;9.10;99.90;;;9.10;100.00;100054.81;5092373;28;20036;-72
2023/12/09 10:03:13;;;;;;;35.53;10.88;;;9.10;99.90;;;9.17;100.00;100061.78;5091836;28;20404;-72
2023/12/09 10:05:41;;;;;;;46.13;11.48;;;9.10;99.90;;;9.18;100.00;100001.97;5092303;28;20148;-73
2023/12/09 10:08:09;;;;;;;34.03;11.18;;;9.10;99.90;;;9.21;100.00;100038.88;5091855;28;20059;-73
2023/12/09 10:10:38;;;;;;;35.65;10.43;;;9.10;99.90;;;9.17;100.00;100023.97;5091929;28;20044;-72
2023/12/09 10:13:08;;;;;;;35.00;9.52;;;9.10;99.90;;;9.24;100.00;100000.13;5074056;28;20469;-73
2023/12/09 10:15:38;;;;;;;31.92;10.30;;;9.20;99.90;;;9.24;100.00;100009.81;5074339;28;20071;-73